Richmond, CA

01:00 AM PDT die 26o April, anno 2017 (GMT -0700)
Pt Richmond | | Change Station

Elev 145 ft 37.93 °N, 122.39 °W | Updated 3 seconds ago

Aequaliter Nubila
Aequaliter Nubila
56.8 °F
Feels Like 56.8 °F
N
0.0
Ventus Variabilis Ventus from Aquilo
Gusts 1.3 mph

Hodie
High -- | Low -- °F
--% Chance of Precip.
Yesterday
High -- | Low -- °F
Precip. -- in
Pressio 30.06 in
Visibilitas 10.0 milia passuum
Clouds Few 2100 ft
Nubes Dispersae 9000 ft
Aequaliter Nubila 11000 ft
Frigus in quo Ros apparet 54 °F
Umor 91%
Rainfall 0.00 in
Snow Depth Not available.
6:19 AM 7:55 PM
Waning Crescent, 0% visible
METAR KCCR 260753Z AUTO 24005KT 10SM FEW021 SCT090 OVC110 15/11 A3010 RMK AO2 SLP177 T01500111 402110111
Pressio 30.06 in
Visibilitas 10.0 milia passuum
Clouds Few 2100 ft
Nubes Dispersae 9000 ft
Aequaliter Nubila 11000 ft
Frigus in quo Ros apparet 54 °F
Umor 91%
Rainfall 0.00 in
Snow Depth Not available.
6:19 AM 7:55 PM
Waning Crescent, 0% visible
METAR KCCR 260753Z AUTO 24005KT 10SM FEW021 SCT090 OVC110 15/11 A3010 RMK AO2 SLP177 T01500111 402110111

Get Severe Weather Alerts

Thanks for signing up!

Be on the lookout for a verification email in your inbox.

You'll start receiving the daily forecast at 8 AM.

×

10-Day Weather Forecast

Almanac

Astronomy

Apr. 26, 2017 Rise Set
Actual Time
Civil Twilight
Nautical Twilight
Astronomical Twilight
Moon
Length Of Visible Light
Length of Day
Tomorrow will be .
, % of the Moon is Illuminated

Today's Extremes

State Highs State Lows

Community

WunderPhotos

WunderBlog® & News

Nearby

Air Quality

  Air Quality AQ Index Pollutant
Not available.

Snow Depth

Station Depth Elevation

Earthquake Activity

City Distance Mag. Time & Date
Minimum magnitude displayed is 2.5.

Coastal Water Temperatures

Locus Calor

Stations

Nearby Weather Stations

Station Location Temp Frigus Venti Frigus in quo Ros apparet Umor Ventus Precip. Elev Renovata Type
                   

Watches & Warnings

There are currently no watches in effect.